createdAt,value
2023-11-25T00:02:04.795Z,1.80
2023-11-25T00:04:40.917Z,1.80
2023-11-25T00:07:12.013Z,1.70
2023-11-25T00:09:40.930Z,1.70
2023-11-25T00:15:11.032Z,1.70
2023-11-25T00:17:52.260Z,1.70
2023-11-25T00:20:25.701Z,1.70
2023-11-25T00:23:08.604Z,1.80
2023-11-25T00:25:42.159Z,1.70
2023-11-25T00:28:12.820Z,1.90
2023-11-25T00:33:57.282Z,1.70
2023-11-25T00:36:27.402Z,1.70
2023-11-25T00:41:36.930Z,1.60
2023-11-25T00:52:13.138Z,1.30
2023-11-25T00:54:43.277Z,0.90
2023-11-25T00:57:18.307Z,0.70
2023-11-25T00:59:53.153Z,0.60
2023-11-25T01:02:24.030Z,0.80
2023-11-25T01:13:59.568Z,0.60
2023-11-25T01:16:34.240Z,0.60
2023-11-25T01:19:04.833Z,0.60
2023-11-25T01:27:05.660Z,0.60
2023-11-25T01:29:40.711Z,0.60
2023-11-25T01:32:12.882Z,0.60
2023-11-25T01:34:40.239Z,0.40
2023-11-25T01:37:08.698Z,0.60
2023-11-25T01:39:36.636Z,0.60
2023-11-25T01:42:04.200Z,0.70
2023-11-25T01:44:35.521Z,0.70
2023-11-25T01:50:01.182Z,0.70
2023-11-25T01:52:31.573Z,0.80
2023-11-25T01:55:08.118Z,0.80
2023-11-25T01:57:42.178Z,0.80
2023-11-25T02:00:14.957Z,0.80
2023-11-25T02:02:45.864Z,0.80
2023-11-25T02:05:20.281Z,0.80
2023-11-25T02:08:16.088Z,0.70
2023-11-25T02:16:15.063Z,0.80
2023-11-25T02:18:42.750Z,0.80
2023-11-25T02:21:11.828Z,0.80
2023-11-25T02:23:39.287Z,0.80
2023-11-25T02:26:06.517Z,0.80
2023-11-25T02:28:33.799Z,0.70
2023-11-25T02:31:00.597Z,0.70
2023-11-25T02:33:35.015Z,0.60
2023-11-25T02:36:02.286Z,0.50
2023-11-25T02:38:30.356Z,0.50
2023-11-25T02:40:57.674Z,0.50
2023-11-25T02:43:24.646Z,0.40
2023-11-25T02:45:51.926Z,0.50
2023-11-25T02:48:19.850Z,0.60
2023-11-25T02:50:47.441Z,0.70
2023-11-25T02:53:19.165Z,0.70
2023-11-25T02:55:48.386Z,0.70
2023-11-25T02:58:16.087Z,0.60
2023-11-25T03:00:44.827Z,0.70
2023-11-25T03:03:18.952Z,0.60
2023-11-25T03:05:51.233Z,0.60
2023-11-25T03:08:19.665Z,0.60
2023-11-25T03:10:50.309Z,0.60
2023-11-25T03:13:17.937Z,0.60
2023-11-25T03:15:45.330Z,0.60
2023-11-25T03:18:14.032Z,0.60
2023-11-25T03:20:41.140Z,0.60
2023-11-25T03:23:08.562Z,0.60
2023-11-25T03:25:35.985Z,0.60
2023-11-25T03:28:06.044Z,0.40
2023-11-25T03:30:33.809Z,0.50
2023-11-25T03:33:01.198Z,0.60
2023-11-25T03:35:28.496Z,0.60
2023-11-25T03:37:55.672Z,0.60
2023-11-25T03:40:23.421Z,0.60
2023-11-25T03:42:50.406Z,0.50
2023-11-25T03:45:17.362Z,0.40
2023-11-25T03:47:46.575Z,0.30
2023-11-25T03:50:13.984Z,0.30
2023-11-25T03:52:44.624Z,0.50
2023-11-25T03:55:12.126Z,0.50
2023-11-25T03:57:40.674Z,0.60
2023-11-25T04:00:18.249Z,0.60
2023-11-25T04:02:47.592Z,0.60
2023-11-25T04:05:16.903Z,0.60
2023-11-25T04:07:44.895Z,0.70
2023-11-25T04:10:20.057Z,0.70
2023-11-25T04:12:48.896Z,0.70
2023-11-25T04:15:23.088Z,0.70
2023-11-25T04:17:50.441Z,0.60
2023-11-25T04:20:32.683Z,0.70
2023-11-25T04:23:07.996Z,0.70
2023-11-25T04:25:37.243Z,0.70
2023-11-25T04:28:06.202Z,0.80
2023-11-25T04:30:33.277Z,0.80
2023-11-25T04:33:00.964Z,0.70
2023-11-25T04:35:27.810Z,0.70
2023-11-25T04:37:55.006Z,0.70
2023-11-25T04:40:22.242Z,0.70
2023-11-25T04:42:49.876Z,0.70
2023-11-25T04:45:18.726Z,0.70
2023-11-25T04:47:58.097Z,0.60
2023-11-25T04:50:28.602Z,0.70
2023-11-25T04:52:56.017Z,0.70
2023-11-25T04:55:28.038Z,0.70
2023-11-25T04:57:58.735Z,0.80
2023-11-25T05:00:25.816Z,0.70
2023-11-25T05:02:53.359Z,0.80
2023-11-25T05:05:23.077Z,0.80
2023-11-25T05:07:50.701Z,0.70
2023-11-25T05:10:18.589Z,0.60
2023-11-25T05:12:46.532Z,0.50
2023-11-25T05:15:13.806Z,0.40
2023-11-25T05:17:41.295Z,0.40
2023-11-25T05:20:19.085Z,0.40
2023-11-25T05:22:47.163Z,0.50
2023-11-25T05:25:17.466Z,0.50
2023-11-25T05:27:46.041Z,0.50
2023-11-25T05:30:15.349Z,0.50
2023-11-25T05:32:56.580Z,0.60
2023-11-25T05:35:24.409Z,0.60
2023-11-25T05:37:53.107Z,0.60
2023-11-25T05:40:20.257Z,0.70
2023-11-25T05:42:55.428Z,0.60
2023-11-25T05:45:28.528Z,0.60
2023-11-25T05:47:55.809Z,0.60
2023-11-25T05:50:26.294Z,0.60
2023-11-25T05:52:54.331Z,0.60
2023-11-25T05:55:22.878Z,0.60
2023-11-25T05:57:52.467Z,0.60
2023-11-25T06:00:21.088Z,0.50
2023-11-25T06:02:48.209Z,0.50
2023-11-25T06:05:15.100Z,0.40
2023-11-25T06:07:42.449Z,0.40
2023-11-25T06:10:11.323Z,0.30
2023-11-25T06:12:38.399Z,0.30
2023-11-25T06:15:11.284Z,0.30
2023-11-25T06:17:38.726Z,0.30
2023-11-25T06:20:07.023Z,0.30
2023-11-25T06:22:34.259Z,0.30
2023-11-25T06:25:05.702Z,0.30
2023-11-25T06:27:35.628Z,0.30
2023-11-25T06:30:02.524Z,0.30
2023-11-25T06:32:29.843Z,0.40
2023-11-25T06:34:59.679Z,0.40
2023-11-25T06:37:27.985Z,0.40
2023-11-25T06:39:59.899Z,0.30
2023-11-25T06:42:26.736Z,0.30
2023-11-25T06:44:55.687Z,0.30
2023-11-25T06:47:24.128Z,0.40
2023-11-25T06:49:52.548Z,0.40
2023-11-25T06:52:19.983Z,0.40
2023-11-25T06:54:46.807Z,0.30
2023-11-25T06:57:13.982Z,0.40
2023-11-25T06:59:46.176Z,0.30
2023-11-25T07:02:13.917Z,0.30
2023-11-25T07:04:41.212Z,0.40
2023-11-25T07:07:08.525Z,0.30
2023-11-25T07:09:35.803Z,0.30
2023-11-25T07:12:06.002Z,0.30
2023-11-25T07:14:33.898Z,0.40
2023-11-25T07:17:00.904Z,0.40
2023-11-25T07:19:30.287Z,0.40
2023-11-25T07:21:57.241Z,0.40
2023-11-25T07:24:28.943Z,0.40
2023-11-25T07:27:03.366Z,0.40
2023-11-25T07:29:32.719Z,0.40
2023-11-25T07:32:02.888Z,0.20
2023-11-25T07:34:33.901Z,0.30
2023-11-25T07:37:03.489Z,0.30
2023-11-25T07:39:31.082Z,0.40
2023-11-25T07:41:59.612Z,0.30
2023-11-25T07:44:32.000Z,0.30
2023-11-25T07:46:59.746Z,0.40
2023-11-25T07:49:27.007Z,0.30
2023-11-25T07:51:55.031Z,0.30
2023-11-25T07:54:34.017Z,0.40
2023-11-25T07:57:01.510Z,0.40
2023-11-25T07:59:29.238Z,0.40
2023-11-25T08:01:56.866Z,0.40
2023-11-25T08:04:26.767Z,0.30
2023-11-25T08:06:53.682Z,0.40
2023-11-25T08:09:21.326Z,0.50
2023-11-25T08:11:48.981Z,0.50
2023-11-25T08:14:21.409Z,0.50
2023-11-25T08:16:59.452Z,0.50
2023-11-25T08:19:26.969Z,0.50
2023-11-25T08:21:54.130Z,0.50
2023-11-25T08:24:24.142Z,0.60
2023-11-25T08:26:53.534Z,0.60
2023-11-25T08:29:25.296Z,0.70
2023-11-25T08:31:57.429Z,0.70
2023-11-25T08:34:28.542Z,0.80
2023-11-25T08:37:07.440Z,0.90
2023-11-25T08:39:37.483Z,0.90
2023-11-25T08:42:09.462Z,0.90
2023-11-25T08:44:37.926Z,1.00
2023-11-25T08:47:07.969Z,1.10
2023-11-25T08:49:36.479Z,1.30
2023-11-25T08:52:06.576Z,1.40
2023-11-25T08:54:38.281Z,1.20
2023-11-25T08:57:12.512Z,1.40
2023-11-25T08:59:41.117Z,1.40
2023-11-25T09:02:14.203Z,1.50
2023-11-25T09:04:44.740Z,1.50
2023-11-25T09:07:18.559Z,1.70
2023-11-25T09:09:51.064Z,1.60
2023-11-25T09:12:20.772Z,1.60
2023-11-25T09:14:51.788Z,1.60
2023-11-25T09:17:25.000Z,1.70
2023-11-25T09:19:53.145Z,1.70
2023-11-25T09:22:21.102Z,1.90
2023-11-25T09:24:53.463Z,1.60
2023-11-25T09:27:21.555Z,1.60
2023-11-25T09:29:50.299Z,1.60
2023-11-25T09:32:17.145Z,1.60
2023-11-25T09:34:44.031Z,1.60
2023-11-25T09:37:12.679Z,1.60
2023-11-25T09:39:39.887Z,1.60
2023-11-25T09:42:11.964Z,1.60
2023-11-25T09:44:42.240Z,1.70
2023-11-25T09:47:09.348Z,1.60
2023-11-25T09:49:36.494Z,1.60
2023-11-25T09:52:07.320Z,1.70
2023-11-25T09:54:36.925Z,1.80
2023-11-25T09:57:07.493Z,1.80
2023-11-25T09:59:35.065Z,1.80
2023-11-25T10:02:11.276Z,1.80
2023-11-25T10:04:44.722Z,1.80
2023-11-25T10:07:17.381Z,1.70
2023-11-25T10:09:47.547Z,1.80
2023-11-25T10:12:16.025Z,1.80
2023-11-25T10:14:46.298Z,1.70
2023-11-25T10:17:28.347Z,1.70
2023-11-25T10:20:12.042Z,1.80
2023-11-25T10:22:55.107Z,1.70
2023-11-25T10:25:32.330Z,1.70
2023-11-25T10:28:00.377Z,1.70
2023-11-25T10:30:27.682Z,1.60
2023-11-25T10:32:58.663Z,1.70
2023-11-25T10:35:26.029Z,1.70
2023-11-25T10:37:53.438Z,1.60
2023-11-25T10:40:34.777Z,1.60
2023-11-25T10:43:16.642Z,1.70
2023-11-25T10:45:50.469Z,1.80
2023-11-25T10:48:17.589Z,1.70
2023-11-25T10:50:44.681Z,2.00
2023-11-25T10:53:17.363Z,2.20
2023-11-25T10:55:47.838Z,2.30
2023-11-25T10:58:17.035Z,2.30
2023-11-25T11:00:45.083Z,2.40
2023-11-25T11:03:15.501Z,2.20
2023-11-25T11:06:02.661Z,2.20
2023-11-25T11:08:33.984Z,2.10
2023-11-25T11:11:13.348Z,2.00
2023-11-25T11:13:44.284Z,1.90
2023-11-25T11:16:18.923Z,1.80
2023-11-25T11:18:47.527Z,1.80
2023-11-25T11:21:21.370Z,1.80
2023-11-25T11:23:50.330Z,1.90
2023-11-25T11:27:07.405Z,2.00
2023-11-25T11:29:44.867Z,2.00
2023-11-25T11:32:16.298Z,2.00
2023-11-25T11:34:43.495Z,2.10
2023-11-25T11:37:13.244Z,2.10
2023-11-25T11:39:53.506Z,2.20
2023-11-25T11:42:31.278Z,2.20
2023-11-25T11:45:17.062Z,2.20
2023-11-25T11:48:05.027Z,2.00
2023-11-25T11:50:40.763Z,2.10
2023-11-25T11:53:13.912Z,2.10
2023-11-25T11:55:51.684Z,2.20
2023-11-25T11:58:28.352Z,2.40
2023-11-25T12:01:09.916Z,2.20
2023-11-25T12:04:03.706Z,2.10
2023-11-25T12:06:46.559Z,2.00
2023-11-25T12:09:28.391Z,2.10
2023-11-25T12:14:54.495Z,2.10
2023-11-25T12:17:34.454Z,2.00
2023-11-25T12:20:04.798Z,2.20
2023-11-25T12:22:34.451Z,2.20
2023-11-25T12:25:04.384Z,2.30
2023-11-25T12:27:35.162Z,2.20
2023-11-25T12:33:00.528Z,2.30
2023-11-25T12:35:27.505Z,2.30
2023-11-25T12:38:07.725Z,2.30
2023-11-25T12:40:41.447Z,2.40
2023-11-25T12:43:10.091Z,2.30
2023-11-25T12:45:38.716Z,2.10
2023-11-25T12:48:13.118Z,2.10
2023-11-25T12:51:03.075Z,2.10
2023-11-25T12:53:30.742Z,2.00
2023-11-25T12:55:59.295Z,2.10
2023-11-25T12:58:27.976Z,2.10
2023-11-25T13:00:57.810Z,2.20
2023-11-25T13:03:33.704Z,2.30
2023-11-25T13:06:10.893Z,2.40
2023-11-25T13:08:41.213Z,2.30
2023-11-25T13:11:12.019Z,2.30
2023-11-25T13:13:40.041Z,2.20
2023-11-25T13:16:11.625Z,2.20
2023-11-25T13:18:39.229Z,2.20
2023-11-25T13:21:08.341Z,2.20
2023-11-25T13:23:35.734Z,2.10
2023-11-25T13:26:05.598Z,2.20
2023-11-25T13:28:32.495Z,2.10
2023-11-25T13:30:59.440Z,2.10
2023-11-25T13:33:28.453Z,2.10
2023-11-25T13:35:55.588Z,2.20
2023-11-25T13:38:22.833Z,2.00
2023-11-25T13:40:49.837Z,1.90
2023-11-25T13:43:21.836Z,2.00
2023-11-25T13:45:49.735Z,1.90
2023-11-25T13:48:18.355Z,2.00
2023-11-25T13:50:45.326Z,2.00
2023-11-25T13:53:14.827Z,2.00
2023-11-25T13:55:46.791Z,2.00
2023-11-25T13:58:16.571Z,1.90
2023-11-25T14:00:43.992Z,1.90
2023-11-25T14:03:12.091Z,1.90
2023-11-25T14:05:43.502Z,1.90
2023-11-25T14:08:13.488Z,2.00
2023-11-25T14:10:44.438Z,1.90
2023-11-25T14:13:12.771Z,1.90
2023-11-25T14:15:39.650Z,1.90
2023-11-25T14:18:09.742Z,1.90
2023-11-25T14:20:37.368Z,1.90
2023-11-25T14:23:06.536Z,1.90
2023-11-25T14:25:34.071Z,1.90
2023-11-25T14:28:03.160Z,1.90
2023-11-25T14:30:32.211Z,1.90
2023-11-25T14:33:00.585Z,1.80
2023-11-25T14:35:27.659Z,1.80
2023-11-25T14:37:58.417Z,1.70
2023-11-25T14:40:25.594Z,1.70
2023-11-25T14:42:53.156Z,1.70
2023-11-25T14:45:22.010Z,1.70
2023-11-25T14:47:49.185Z,1.70
2023-11-25T14:50:17.855Z,1.60
2023-11-25T14:52:44.736Z,1.60
2023-11-25T14:55:13.048Z,1.70
2023-11-25T14:57:40.835Z,1.70
2023-11-25T15:00:14.481Z,1.60
2023-11-25T15:02:42.453Z,1.50
2023-11-25T15:05:11.042Z,1.50
2023-11-25T15:07:40.251Z,1.50
2023-11-25T15:10:12.319Z,1.50
2023-11-25T15:12:39.680Z,1.40
2023-11-25T15:15:10.438Z,1.50
2023-11-25T15:17:38.715Z,1.50
2023-11-25T15:20:07.286Z,1.50
2023-11-25T15:22:37.001Z,1.60
2023-11-25T15:25:05.040Z,1.60
2023-11-25T15:27:31.845Z,1.60
2023-11-25T15:30:10.412Z,1.70
2023-11-25T15:32:40.248Z,1.50
2023-11-25T15:35:11.686Z,1.70
2023-11-25T15:37:38.895Z,1.50
2023-11-25T15:40:06.611Z,1.70
2023-11-25T15:42:35.011Z,1.70
2023-11-25T15:45:03.946Z,1.80
2023-11-25T15:47:33.378Z,1.80
2023-11-25T15:50:01.691Z,1.70
2023-11-25T15:52:29.048Z,1.50
2023-11-25T15:54:55.973Z,1.70
2023-11-25T15:57:22.943Z,1.70
2023-11-25T15:59:50.548Z,1.80
2023-11-25T16:02:17.986Z,1.80
2023-11-25T16:04:46.409Z,1.70
2023-11-25T16:07:17.378Z,1.70
2023-11-25T16:09:45.724Z,1.70
2023-11-25T16:12:15.620Z,1.80
2023-11-25T16:14:43.640Z,1.60
2023-11-25T16:17:15.133Z,1.60
2023-11-25T16:19:46.664Z,1.70
2023-11-25T16:22:14.036Z,1.60
2023-11-25T16:24:44.830Z,1.70
2023-11-25T16:27:14.562Z,1.70
2023-11-25T16:29:45.459Z,1.70
2023-11-25T16:32:20.214Z,1.60
2023-11-25T16:37:36.234Z,1.60
2023-11-25T16:40:07.422Z,1.50
2023-11-25T16:42:36.210Z,1.50
2023-11-25T16:45:04.214Z,1.50
2023-11-25T16:47:31.094Z,1.50
2023-11-25T16:49:58.320Z,1.60
2023-11-25T16:52:29.148Z,1.60
2023-11-25T16:54:56.435Z,1.60
2023-11-25T16:57:23.825Z,1.80
2023-11-25T16:59:56.386Z,1.70
2023-11-25T17:02:30.022Z,1.70
2023-11-25T17:04:57.289Z,1.70
2023-11-25T17:07:40.127Z,1.60
2023-11-25T17:10:14.375Z,1.70
2023-11-25T17:12:44.513Z,1.60
2023-11-25T17:15:16.795Z,1.40
2023-11-25T17:17:52.243Z,1.40
2023-11-25T17:20:22.868Z,1.30
2023-11-25T17:22:51.263Z,1.40
2023-11-25T17:25:19.050Z,1.50
2023-11-25T17:27:50.657Z,1.50
2023-11-25T17:30:18.967Z,1.70
2023-11-25T17:32:48.519Z,1.70
2023-11-25T17:35:16.820Z,1.60
2023-11-25T17:37:45.697Z,1.70
2023-11-25T17:40:14.648Z,1.70
2023-11-25T17:42:42.311Z,1.70
2023-11-25T17:45:10.460Z,1.70
2023-11-25T17:47:38.367Z,1.60
2023-11-25T17:50:08.742Z,1.40
2023-11-25T17:52:36.622Z,1.30
2023-11-25T17:55:10.053Z,1.30
2023-11-25T17:57:38.849Z,1.20
2023-11-25T18:00:06.785Z,1.10
2023-11-25T18:02:36.066Z,1.10
2023-11-25T18:05:04.922Z,1.10
2023-11-25T18:07:35.345Z,1.10
2023-11-25T18:10:07.175Z,1.00
2023-11-25T18:12:34.222Z,1.00
2023-11-25T18:15:01.529Z,1.00
2023-11-25T18:17:34.087Z,1.00
2023-11-25T18:20:09.263Z,0.90
2023-11-25T18:22:36.694Z,0.80
2023-11-25T18:25:08.536Z,0.80
2023-11-25T18:27:42.158Z,0.80
2023-11-25T18:30:11.110Z,0.80
2023-11-25T18:32:39.544Z,0.80
2023-11-25T18:35:07.428Z,0.70
2023-11-25T18:37:35.071Z,0.60
2023-11-25T18:40:04.774Z,0.60
2023-11-25T18:42:34.711Z,0.60
2023-11-25T18:45:02.678Z,0.50
2023-11-25T18:47:30.876Z,0.50
2023-11-25T18:49:57.826Z,0.50
2023-11-25T18:52:30.498Z,0.50
2023-11-25T18:54:58.242Z,0.50
2023-11-25T18:57:26.934Z,0.50
2023-11-25T19:00:05.211Z,0.50
2023-11-25T19:02:35.923Z,0.40
2023-11-25T19:05:03.915Z,0.50
2023-11-25T19:07:31.948Z,0.40
2023-11-25T19:09:58.836Z,0.50
2023-11-25T19:12:25.989Z,0.50
2023-11-25T19:14:55.319Z,0.60
2023-11-25T19:17:22.397Z,0.40
2023-11-25T19:19:49.450Z,0.30
2023-11-25T19:22:17.804Z,0.30
2023-11-25T19:24:44.709Z,0.20
2023-11-25T19:27:11.730Z,0.30
2023-11-25T19:29:43.402Z,0.50
2023-11-25T19:32:11.251Z,0.60
2023-11-25T19:34:38.760Z,0.30
2023-11-25T19:37:05.966Z,0.40
2023-11-25T19:39:33.196Z,0.20
2023-11-25T19:42:00.204Z,0.20
2023-11-25T19:44:27.514Z,0.20
2023-11-25T19:46:56.097Z,0.20
2023-11-25T19:49:23.517Z,0.20
2023-11-25T19:51:54.554Z,0.20
2023-11-25T19:54:24.608Z,0.20
2023-11-25T19:56:51.717Z,0.20
2023-11-25T19:59:18.816Z,0.10
2023-11-25T20:01:46.151Z,0.10
2023-11-25T20:06:44.454Z,0.10
2023-11-25T20:09:11.596Z,0.20
2023-11-25T20:14:12.293Z,0.20
2023-11-25T20:16:39.607Z,0.40
2023-11-25T20:19:09.394Z,0.40
2023-11-25T20:21:36.375Z,0.50
2023-11-25T20:24:07.392Z,0.50
2023-11-25T20:26:43.854Z,0.50
2023-11-25T20:29:14.090Z,0.50
2023-11-25T20:31:45.101Z,0.50
2023-11-25T20:34:13.696Z,0.50
2023-11-25T20:36:40.729Z,0.60
2023-11-25T20:39:09.651Z,0.60
2023-11-25T20:41:36.716Z,0.60
2023-11-25T20:44:09.527Z,0.60
2023-11-25T20:46:40.676Z,0.70
2023-11-25T20:49:09.270Z,0.70
2023-11-25T20:51:38.702Z,0.70
2023-11-25T20:54:12.595Z,0.70
2023-11-25T20:56:48.110Z,0.80
2023-11-25T20:59:15.456Z,0.80
2023-11-25T21:01:44.193Z,0.80
2023-11-25T21:04:14.957Z,0.80
2023-11-25T21:06:44.171Z,0.80
2023-11-25T21:09:14.208Z,1.00
2023-11-25T21:11:44.888Z,0.80
2023-11-25T21:14:16.328Z,0.80
2023-11-25T21:16:43.898Z,0.90
2023-11-25T21:19:12.122Z,0.90
2023-11-25T21:21:42.107Z,0.90
2023-11-25T21:24:14.282Z,0.90
2023-11-25T21:26:43.516Z,1.00
2023-11-25T21:29:10.610Z,0.90
2023-11-25T21:31:39.310Z,0.90
2023-11-25T21:34:10.813Z,0.90
2023-11-25T21:36:40.482Z,0.90
2023-11-25T21:39:09.034Z,0.90
2023-11-25T21:41:39.535Z,0.90
2023-11-25T21:44:08.086Z,0.90
2023-11-25T21:46:38.452Z,0.90
2023-11-25T21:49:06.633Z,0.90
2023-11-25T21:51:37.911Z,0.90
2023-11-25T21:54:05.419Z,0.90
2023-11-25T21:56:33.059Z,0.90
2023-11-25T21:59:02.120Z,0.90
2023-11-25T22:01:33.060Z,0.80
2023-11-25T22:07:03.124Z,0.70
2023-11-25T22:09:31.579Z,0.60
2023-11-25T22:12:00.770Z,1.20
2023-11-25T22:14:30.191Z,0.60
2023-11-25T22:16:59.983Z,0.60
2023-11-25T22:19:28.279Z,0.60
2023-11-25T22:21:55.723Z,0.60
2023-11-25T22:24:25.091Z,0.60
2023-11-25T22:27:01.504Z,0.60
2023-11-25T22:29:29.670Z,0.60
2023-11-25T22:32:01.168Z,0.70
2023-11-25T22:34:31.224Z,0.70
2023-11-25T22:37:17.778Z,0.70
2023-11-25T22:39:51.042Z,0.80
2023-11-25T22:42:23.240Z,0.80
2023-11-25T22:44:52.984Z,0.80
2023-11-25T22:47:21.444Z,0.80
2023-11-25T22:49:50.771Z,0.90
2023-11-25T22:52:24.699Z,0.80
2023-11-25T22:55:09.196Z,0.80
2023-11-25T22:57:42.498Z,0.80
2023-11-25T23:00:29.812Z,0.90
2023-11-25T23:02:57.551Z,0.80
2023-11-25T23:05:32.089Z,0.60
2023-11-25T23:07:59.493Z,0.50
2023-11-25T23:10:32.650Z,0.40
2023-11-25T23:12:59.877Z,0.40
2023-11-25T23:15:35.559Z,0.30
2023-11-25T23:18:04.586Z,0.20
2023-11-25T23:20:34.473Z,0.20
2023-11-25T23:23:03.622Z,0.20
2023-11-25T23:25:31.076Z,0.10
2023-11-25T23:27:58.306Z,0.10
2023-11-25T23:30:25.902Z,0.10
2023-11-25T23:32:55.881Z,0.20
2023-11-25T23:35:22.821Z,0.10
2023-11-25T23:37:51.601Z,0.10
2023-11-25T23:40:19.651Z,0.10
2023-11-25T23:42:47.536Z,0.20
2023-11-25T23:45:20.474Z,0.20
2023-11-25T23:47:50.415Z,0.10
2023-11-25T23:50:17.347Z,0.20
2023-11-25T23:52:45.619Z,0.20
2023-11-25T23:55:14.663Z,0.20
2023-11-25T23:57:46.231Z,0.20
